F/V Mare Liberum — FVHW — position and weather

sailwx.info

Track history (hours):
 
Tides and Currents Weather Stations Pressure Air Temp Water Temp Dewpoint Dewpoint Depression Visibility Wind Speed Wind Dir Waves Ship Positions

F/V Mare Liberum

Last reported at 2017-Aug-17 08:55 UTC. Time now 2017-Aug-21 10:20 UTC.
Position N 46°30' W 001°47'.

Length 21 m.

Type: Fishing. MMSI: 227426000.

Date/timePositionNaut miles runAvg speedWind from/ knotsBaromVisibWave heightAir tempDewpointWater temp
2017-Aug-17 08:55N 46°30' W 001°47'0 0.0
2017-Aug-17 08:30N 46°30' W 001°47'0 0.0
2017-Aug-17 08:00N 46°30' W 001°47'0 0.0
2017-Aug-17 07:30N 46°30' W 001°47'0 0.0
2017-Aug-17 07:00N 46°30' W 001°47'  
2017-Aug-10 10:36N 46°30' W 001°47'0 0.0
2017-Aug-10 10:30N 46°30' W 001°47'0 0.0
2017-Aug-10 10:00N 46°30' W 001°47'0 0.0
2017-Aug-10 09:30N 46°30' W 001°47'0 0.0
2017-Aug-10 08:57N 46°30' W 001°47'0 0.0
2017-Aug-10 08:30N 46°30' W 001°47'0 0.0
2017-Aug-10 08:00N 46°30' W 001°47'0 0.0
2017-Aug-10 07:30N 46°30' W 001°47'0 0.0
2017-Aug-10 07:00N 46°30' W 001°47'0 0.0
2017-Aug-10 06:30N 46°30' W 001°47'0 0.0
2017-Aug-10 06:00N 46°30' W 001°47'0 0.0
2017-Aug-10 05:30N 46°30' W 001°47'0 0.0
2017-Aug-10 05:00N 46°30' W 001°47'0 0.0
2017-Aug-10 04:30N 46°30' W 001°47'0 0.0
2017-Aug-10 04:00N 46°30' W 001°47'0 0.0
2017-Aug-10 03:30N 46°30' W 001°47'0 0.0
2017-Aug-10 03:00N 46°30' W 001°47'0 0.0
2017-Aug-10 02:30N 46°30' W 001°47'0 0.0
2017-Aug-10 02:00N 46°30' W 001°47'0 0.0
2017-Aug-10 01:30N 46°30' W 001°47'0 0.0
2017-Aug-10 01:00N 46°30' W 001°47'0 0.0
2017-Aug-10 00:30N 46°30' W 001°47'0 0.0
2017-Aug-10 00:00N 46°30' W 001°47'0 0.0
2017-Aug-09 23:30N 46°30' W 001°47'0 0.0
2017-Aug-09 23:00N 46°30' W 001°47'0 0.0
2017-Aug-09 22:30N 46°30' W 001°47'0 0.0
2017-Aug-09 22:00N 46°30' W 001°47'0 0.0
2017-Aug-09 21:30N 46°30' W 001°47'0 0.0
2017-Aug-09 21:00N 46°30' W 001°47'0 0.0
2017-Aug-09 20:30N 46°30' W 001°47'0 0.0
2017-Aug-09 20:00N 46°30' W 001°47'0 0.0
2017-Aug-09 19:30N 46°30' W 001°47'0 0.0
2017-Aug-09 19:00N 46°30' W 001°47'0 0.0
2017-Aug-09 18:30N 46°30' W 001°47'0 0.0
2017-Aug-09 18:00N 46°30' W 001°47'0 0.0
2017-Aug-09 17:30N 46°30' W 001°47'0 0.0
2017-Aug-09 17:00N 46°30' W 001°47'0 0.0
2017-Aug-09 16:30N 46°30' W 001°47'0 0.0
2017-Aug-09 16:00N 46°30' W 001°47'0 0.0
2017-Aug-09 15:30N 46°30' W 001°47'0 0.0
2017-Aug-09 15:00N 46°30' W 001°47'0 0.0
2017-Aug-09 14:30N 46°30' W 001°47'0 0.0
2017-Aug-09 14:00N 46°30' W 001°47'0 0.0
2017-Aug-09 13:30N 46°30' W 001°47'0 0.0
2017-Aug-09 13:00N 46°30' W 001°47'0 0.0
2017-Aug-09 12:30N 46°30' W 001°47'0 0.0
2017-Aug-09 12:00N 46°30' W 001°47'0 0.0
2017-Aug-09 11:30N 46°30' W 001°47'0 0.0
2017-Aug-09 11:00N 46°30' W 001°47'0 0.0
2017-Aug-09 10:30N 46°30' W 001°47'0 0.0
2017-Aug-09 10:00N 46°30' W 001°47'0 0.0
2017-Aug-09 09:30N 46°30' W 001°47'0 0.0
2017-Aug-09 09:00N 46°30' W 001°47'0 0.0
2017-Aug-09 08:30N 46°30' W 001°47'0 0.1
2017-Aug-09 08:00N 46°30' W 001°47'0 0.1
2017-Aug-09 07:30N 46°30' W 001°47'0 0.0
2017-Aug-09 07:00N 46°30' W 001°47'0 0.0
2017-Aug-09 06:30N 46°30' W 001°47'0 0.0
2017-Aug-09 06:00N 46°30' W 001°47'16 2.8
2017-Aug-09 00:24N 46°39' W 002°06'2 5.5
2017-Aug-08 23:59N 46°40' W 002°08'23 4.7
2017-Aug-08 19:09N 47°02' W 002°19'1 4.3
2017-Aug-08 18:59N 47°02' W 002°18'0 0.7
2017-Aug-08 18:30N 47°01' W 002°18'0 0.0
2017-Aug-08 18:00N 47°01' W 002°18'0 0.0
2017-Aug-08 17:30N 47°01' W 002°18'0 0.0
2017-Aug-08 17:00N 47°01' W 002°18'0 0.0
2017-Aug-08 16:28N 47°01' W 002°18'0 0.0
2017-Aug-08 15:59N 47°01' W 002°18'0 0.0
2017-Aug-08 15:29N 47°01' W 002°18'0 0.0
2017-Aug-08 15:00N 47°01' W 002°18'0 0.0
2017-Aug-08 14:29N 47°01' W 002°18'0 0.0
2017-Aug-08 13:59N 47°01' W 002°18'0 0.0
2017-Aug-08 13:30N 47°01' W 002°18'0 0.0
2017-Aug-08 13:00N 47°01' W 002°18'0 0.0
2017-Aug-08 12:29N 47°01' W 002°18'0 0.0
2017-Aug-08 12:00N 47°01' W 002°18'0 0.0
2017-Aug-08 09:10N 47°01' W 002°18'0 0.0
2017-Aug-08 08:59N 47°01' W 002°18'0 0.0
2017-Aug-08 08:29N 47°01' W 002°18'0 0.0
2017-Aug-08 07:59N 47°01' W 002°18'0 0.0
2017-Aug-08 07:28N 47°01' W 002°18'0 0.0
2017-Aug-08 07:00N 47°01' W 002°18'0 0.0
2017-Aug-08 06:30N 47°01' W 002°18'0 0.0
2017-Aug-08 06:00N 47°01' W 002°18'0 0.0
2017-Aug-08 05:30N 47°01' W 002°18'0 0.0
2017-Aug-08 04:59N 47°01' W 002°18'0 0.0
2017-Aug-08 04:30N 47°01' W 002°18'0 0.0
2017-Aug-08 03:58N 47°01' W 002°18'0 0.0
2017-Aug-08 03:24N 47°01' W 002°18'0 0.0
2017-Aug-08 03:00N 47°01' W 002°18'0 0.0
2017-Aug-08 02:30N 47°01' W 002°18'0 0.0
2017-Aug-08 01:59N 47°01' W 002°18'0 0.0
2017-Aug-08 01:30N 47°01' W 002°18'0 0.0
2017-Aug-08 01:00N 47°01' W 002°18'0 0.0
2017-Aug-08 00:30N 47°01' W 002°18'0 0.0
2017-Aug-07 23:59N 47°01' W 002°18'0 0.0
2017-Aug-07 23:30N 47°01' W 002°18'0 0.0
2017-Aug-07 22:58N 47°01' W 002°18'0 0.0
2017-Aug-07 22:30N 47°01' W 002°18'0 0.0
2017-Aug-07 22:00N 47°01' W 002°18'0 0.0
2017-Aug-07 21:30N 47°01' W 002°18'0 0.0
2017-Aug-07 21:00N 47°01' W 002°18'0 0.0
2017-Aug-07 20:30N 47°01' W 002°18'0 0.0
2017-Aug-07 20:00N 47°01' W 002°18'0 0.0
2017-Aug-07 19:30N 47°01' W 002°18'0 0.0
2017-Aug-07 19:00N 47°01' W 002°18'0 0.0
2017-Aug-07 18:30N 47°01' W 002°18'8 1.0
2017-Aug-07 11:01N 46°57' W 002°27'0 8.9
2017-Aug-07 11:00N 46°57' W 002°27'7 9.1
2017-Aug-07 10:16N 46°50' W 002°30'3 8.8
2017-Aug-07 09:59N 46°48' W 002°31'4 8.5
2017-Aug-07 09:30N 46°44' W 002°32'4 8.4
2017-Aug-07 09:00N 46°40' W 002°34'  
Track history (hours):
 
Tides and Currents Weather Stations Pressure Air Temp Water Temp Dewpoint Dewpoint Depression Visibility Wind Speed Wind Dir Waves Ship Positions

F/V Mare Liberum

Last reported at 2017-Aug-17 08:55 UTC. Time now 2017-Aug-21 10:20 UTC.
Position N 46°30' W 001°47'.

Length 21 m.

Type: Fishing. MMSI: 227426000.

Date/timePositionNaut miles runAvg speedWind from/ knotsBaromVisibWave heightAir tempDewpointWater temp
2017-Aug-17 08:55N 46°30' W 001°47'0 0.0
2017-Aug-17 08:30N 46°30' W 001°47'0 0.0
2017-Aug-17 08:00N 46°30' W 001°47'0 0.0
2017-Aug-17 07:30N 46°30' W 001°47'0 0.0
2017-Aug-17 07:00N 46°30' W 001°47'  
2017-Aug-10 10:36N 46°30' W 001°47'0 0.0
2017-Aug-10 10:30N 46°30' W 001°47'0 0.0
2017-Aug-10 10:00N 46°30' W 001°47'0 0.0
2017-Aug-10 09:30N 46°30' W 001°47'0 0.0
2017-Aug-10 08:57N 46°30' W 001°47'0 0.0
2017-Aug-10 08:30N 46°30' W 001°47'0 0.0
2017-Aug-10 08:00N 46°30' W 001°47'0 0.0
2017-Aug-10 07:30N 46°30' W 001°47'0 0.0
2017-Aug-10 07:00N 46°30' W 001°47'0 0.0
2017-Aug-10 06:30N 46°30' W 001°47'0 0.0
2017-Aug-10 06:00N 46°30' W 001°47'0 0.0
2017-Aug-10 05:30N 46°30' W 001°47'0 0.0
2017-Aug-10 05:00N 46°30' W 001°47'0 0.0
2017-Aug-10 04:30N 46°30' W 001°47'0 0.0
2017-Aug-10 04:00N 46°30' W 001°47'0 0.0
2017-Aug-10 03:30N 46°30' W 001°47'0 0.0
2017-Aug-10 03:00N 46°30' W 001°47'0 0.0
2017-Aug-10 02:30N 46°30' W 001°47'0 0.0
2017-Aug-10 02:00N 46°30' W 001°47'0 0.0
2017-Aug-10 01:30N 46°30' W 001°47'0 0.0
2017-Aug-10 01:00N 46°30' W 001°47'0 0.0
2017-Aug-10 00:30N 46°30' W 001°47'0 0.0
2017-Aug-10 00:00N 46°30' W 001°47'0 0.0
2017-Aug-09 23:30N 46°30' W 001°47'0 0.0
2017-Aug-09 23:00N 46°30' W 001°47'0 0.0
2017-Aug-09 22:30N 46°30' W 001°47'0 0.0
2017-Aug-09 22:00N 46°30' W 001°47'0 0.0
2017-Aug-09 21:30N 46°30' W 001°47'0 0.0
2017-Aug-09 21:00N 46°30' W 001°47'0 0.0
2017-Aug-09 20:30N 46°30' W 001°47'0 0.0
2017-Aug-09 20:00N 46°30' W 001°47'0 0.0
2017-Aug-09 19:30N 46°30' W 001°47'0 0.0
2017-Aug-09 19:00N 46°30' W 001°47'0 0.0
2017-Aug-09 18:30N 46°30' W 001°47'0 0.0
2017-Aug-09 18:00N 46°30' W 001°47'0 0.0
2017-Aug-09 17:30N 46°30' W 001°47'0 0.0
2017-Aug-09 17:00N 46°30' W 001°47'0 0.0
2017-Aug-09 16:30N 46°30' W 001°47'0 0.0
2017-Aug-09 16:00N 46°30' W 001°47'0 0.0
2017-Aug-09 15:30N 46°30' W 001°47'0 0.0
2017-Aug-09 15:00N 46°30' W 001°47'0 0.0
2017-Aug-09 14:30N 46°30' W 001°47'0 0.0
2017-Aug-09 14:00N 46°30' W 001°47'0 0.0
2017-Aug-09 13:30N 46°30' W 001°47'0 0.0
2017-Aug-09 13:00N 46°30' W 001°47'0 0.0
2017-Aug-09 12:30N 46°30' W 001°47'0 0.0
2017-Aug-09 12:00N 46°30' W 001°47'0 0.0
2017-Aug-09 11:30N 46°30' W 001°47'0 0.0
2017-Aug-09 11:00N 46°30' W 001°47'0 0.0
2017-Aug-09 10:30N 46°30' W 001°47'0 0.0
2017-Aug-09 10:00N 46°30' W 001°47'0 0.0
2017-Aug-09 09:30N 46°30' W 001°47'0 0.0
2017-Aug-09 09:00N 46°30' W 001°47'0 0.0
2017-Aug-09 08:30N 46°30' W 001°47'0 0.1
2017-Aug-09 08:00N 46°30' W 001°47'0 0.1
2017-Aug-09 07:30N 46°30' W 001°47'0 0.0
2017-Aug-09 07:00N 46°30' W 001°47'0 0.0
2017-Aug-09 06:30N 46°30' W 001°47'0 0.0
2017-Aug-09 06:00N 46°30' W 001°47'16 2.8
2017-Aug-09 00:24N 46°39' W 002°06'2 5.5
2017-Aug-08 23:59N 46°40' W 002°08'23 4.7
2017-Aug-08 19:09N 47°02' W 002°19'1 4.3
2017-Aug-08 18:59N 47°02' W 002°18'0 0.7
2017-Aug-08 18:30N 47°01' W 002°18'0 0.0
2017-Aug-08 18:00N 47°01' W 002°18'0 0.0
2017-Aug-08 17:30N 47°01' W 002°18'0 0.0
2017-Aug-08 17:00N 47°01' W 002°18'0 0.0
2017-Aug-08 16:28N 47°01' W 002°18'0 0.0
2017-Aug-08 15:59N 47°01' W 002°18'0 0.0
2017-Aug-08 15:29N 47°01' W 002°18'0 0.0
2017-Aug-08 15:00N 47°01' W 002°18'0 0.0
2017-Aug-08 14:29N 47°01' W 002°18'0 0.0
2017-Aug-08 13:59N 47°01' W 002°18'0 0.0
2017-Aug-08 13:30N 47°01' W 002°18'0 0.0
2017-Aug-08 13:00N 47°01' W 002°18'0 0.0
2017-Aug-08 12:29N 47°01' W 002°18'0 0.0
2017-Aug-08 12:00N 47°01' W 002°18'0 0.0
2017-Aug-08 09:10N 47°01' W 002°18'0 0.0
2017-Aug-08 08:59N 47°01' W 002°18'0 0.0
2017-Aug-08 08:29N 47°01' W 002°18'0 0.0
2017-Aug-08 07:59N 47°01' W 002°18'0 0.0
2017-Aug-08 07:28N 47°01' W 002°18'0 0.0
2017-Aug-08 07:00N 47°01' W 002°18'0 0.0
2017-Aug-08 06:30N 47°01' W 002°18'0 0.0
2017-Aug-08 06:00N 47°01' W 002°18'0 0.0
2017-Aug-08 05:30N 47°01' W 002°18'0 0.0
2017-Aug-08 04:59N 47°01' W 002°18'0 0.0
2017-Aug-08 04:30N 47°01' W 002°18'0 0.0
2017-Aug-08 03:58N 47°01' W 002°18'0 0.0
2017-Aug-08 03:24N 47°01' W 002°18'0 0.0
2017-Aug-08 03:00N 47°01' W 002°18'0 0.0
2017-Aug-08 02:30N 47°01' W 002°18'0 0.0
2017-Aug-08 01:59N 47°01' W 002°18'0 0.0
2017-Aug-08 01:30N 47°01' W 002°18'0 0.0
2017-Aug-08 01:00N 47°01' W 002°18'0 0.0
2017-Aug-08 00:30N 47°01' W 002°18'0 0.0
2017-Aug-07 23:59N 47°01' W 002°18'0 0.0
2017-Aug-07 23:30N 47°01' W 002°18'0 0.0
2017-Aug-07 22:58N 47°01' W 002°18'0 0.0
2017-Aug-07 22:30N 47°01' W 002°18'0 0.0
2017-Aug-07 22:00N 47°01' W 002°18'0 0.0
2017-Aug-07 21:30N 47°01' W 002°18'0 0.0
2017-Aug-07 21:00N 47°01' W 002°18'0 0.0
2017-Aug-07 20:30N 47°01' W 002°18'0 0.0
2017-Aug-07 20:00N 47°01' W 002°18'0 0.0
2017-Aug-07 19:30N 47°01' W 002°18'0 0.0
2017-Aug-07 19:00N 47°01' W 002°18'0 0.0
2017-Aug-07 18:30N 47°01' W 002°18'8 1.0
2017-Aug-07 11:01N 46°57' W 002°27'0 8.9
2017-Aug-07 11:00N 46°57' W 002°27'7 9.1
2017-Aug-07 10:16N 46°50' W 002°30'3 8.8
2017-Aug-07 09:59N 46°48' W 002°31'4 8.5
2017-Aug-07 09:30N 46°44' W 002°32'4 8.4
2017-Aug-07 09:00N 46°40' W 002°34'  

Dump ship's entire track history